Old Mobeetie, Texas
Current Conditions -  °F | °C
As of 7:35 AM on Wednesday 22 Oct 2014 (Local Time) from KHHF Reporting Station
Scattered Clouds Scattered Clouds  
Wind Chill: 59°   Ceiling: Unl
Heat Index: 59°   Visibility: 10mi
Dew Point: 52°   Wind: 5mph
Humidity: 78%   Direction: 200°SSW
Pressure: 30.08"   Gusts: NA
Location:  35.5155°N, 100.433°W
Report Text: KHHF 221235Z AUTO 20004KT 10SM SCT090 SCT110 15/11 A3008 RMK AO2 T01500111
Loading
Personal Weather Stations






























Interactive Weather Map
Tropical Storm Tracking
New forecast layout! Learn more

10-Day Weather Forecast

Advertisements
Track Severe Weather on mobile